Voerendaal, Netherlands
Current Conditions -  °F | °C
As of 11:55 AM on Wednesday 22 Oct 2014 (Local Time) from EHBK Reporting Station
Broken Clouds Broken Clouds  
Wind Chill: 50°   Ceiling: 1900
Heat Index: 50°   Visibility: 6mi
Dew Point: 45°   Wind: 13mph
Humidity: 82%   Direction: 270°W
Pressure: 30.09"   Gusts: NA
Location:  50.88°N, 5.93°E
Report Text: EHBK 220955Z AUTO 27011KT 220V320 9999 FEW014 BKN019 BKN025 10/07 Q1019 TEMPO 28016G26KT 7000 -SHRA FEW020CB
Loading
Personal Weather Stations






























Interactive Weather Map
Tropical Storm Tracking
New forecast layout! Learn more

10-Day Weather Forecast

Advertisements
Track Severe Weather on mobile